Time;durP1;ratioP1;P1;durP2;ratioP2;P2;SDS_P1;SDS_P2;PMS_P1;PMS_P2;Temp;Humidity;BMP_temperature;BMP_pressure;BME280_temperature;BME280_humidity;BME280_pressure;Samples;Min_cycle;Max_cycle;Signal;HPM_P1;HPM_P2
2021/03/12 00:00:21;;;;;;;79.27;43.30;;;;;;;3.11;82.29;98984.52;1658947;83;26347;-78
2021/03/12 00:02:50;;;;;;;78.57;45.30;;;;;;;3.10;82.35;98986.34;1684902;83;26360;-77
2021/03/12 00:05:18;;;;;;;72.45;41.92;;;;;;;3.09;82.28;98982.55;1715881;83;25722;-77
2021/03/12 00:07:45;;;;;;;72.50;39.85;;;;;;;3.11;82.25;98984.52;1681305;82;27317;-78
2021/03/12 00:10:18;;;;;;;76.80;42.15;;;;;;;3.12;82.22;98986.18;1640680;83;25891;-78
2021/03/12 00:12:46;;;;;;;78.75;42.25;;;;;;;3.11;82.22;98977.91;1715702;83;25826;-79
2021/03/12 00:15:16;;;;;;;74.25;40.63;;;;;;;3.13;82.23;98982.52;1706746;83;25797;-78
2021/03/12 00:17:45;;;;;;;79.53;42.00;;;;;;;3.12;82.18;98984.33;1675687;83;26599;-79
2021/03/12 00:20:18;;;;;;;78.55;42.35;;;;;;;3.12;82.21;98979.57;1678072;84;27554;-79
2021/03/12 00:22:47;;;;;;;68.87;38.25;;;;;;;3.13;82.36;98982.02;1696934;83;26404;-79
2021/03/12 00:25:28;;;;;;;67.53;36.98;;;;;;;3.12;82.36;98980.89;1676404;84;25784;-78
2021/03/12 00:27:56;;;;;;;70.80;38.60;;;;;;;3.12;82.32;98984.86;1674851;84;25885;-79
2021/03/12 00:30:23;;;;;;;69.20;37.45;;;;;;;3.11;82.37;98973.45;1683121;83;25878;-79
2021/03/12 00:32:51;;;;;;;69.25;37.38;;;;;;;3.13;82.35;98980.70;1629637;84;27555;-78
2021/03/12 00:35:18;;;;;;;71.50;38.30;;;;;;;3.13;82.37;98975.41;1670034;83;25727;-79
2021/03/12 00:37:46;;;;;;;68.22;37.10;;;;;;;3.16;82.44;98979.53;1679086;83;26370;-79
2021/03/12 00:40:17;;;;;;;64.70;37.35;;;;;;;3.18;82.34;99000.50;1657694;83;25712;-78
2021/03/12 00:42:45;;;;;;;61.70;34.38;;;;;;;3.17;82.34;98997.52;1654762;83;25787;-79
2021/03/12 00:45:16;;;;;;;61.73;34.27;;;;;;;3.16;82.39;98998.55;1672723;83;27563;-78
2021/03/12 00:47:45;;;;;;;62.10;35.55;;;;;;;3.15;82.39;98997.71;1642690;84;26269;-79
2021/03/12 00:50:14;;;;;;;63.75;35.40;;;;;;;3.14;82.48;98986.30;1659856;84;25413;-78
2021/03/12 00:52:44;;;;;;;59.67;34.63;;;;;;;3.14;82.45;98983.66;1665712;84;25661;-79
2021/03/12 00:55:12;;;;;;;62.80;33.83;;;;;;;3.14;82.48;98988.14;1680942;82;25769;-78
2021/03/12 00:57:41;;;;;;;62.58;35.80;;;;;;;3.14;82.52;98990.80;1668667;82;27354;-79
2021/03/12 01:00:10;;;;;;;61.85;33.85;;;;;;;3.13;82.60;98976.73;1685457;82;25937;-78
2021/03/12 01:02:39;;;;;;;;;;;;;;;3.14;82.76;98987.63;1673739;84;25893;-79
2021/03/12 01:05:08;;;;;;;57.55;31.35;;;;;;;3.17;82.87;98971.06;1673520;82;26461;-78
2021/03/12 01:07:36;;;;;;;59.05;32.30;;;;;;;3.17;82.98;98966.61;1689236;82;25816;-78
2021/03/12 01:10:06;;;;;;;54.45;30.27;;;;;;;3.19;83.05;98965.92;1674786;84;27620;-78
2021/03/12 01:12:35;;;;;;;53.63;30.27;;;;;;;3.22;83.06;98968.22;1632142;84;26386;-78
2021/03/12 01:15:07;;;;;;;48.13;28.80;;;;;;;3.23;83.16;98977.78;1662729;82;26042;-79
2021/03/12 01:17:35;;;;;;;50.80;29.15;;;;;;;3.25;83.46;98978.42;1679029;82;25663;-77
2021/03/12 01:20:08;;;;;;;53.10;29.27;;;;;;;3.26;83.51;98970.83;1647268;82;26065;-79
2021/03/12 01:22:35;;;;;;;52.60;29.25;;;;;;;3.27;83.36;98964.55;1649114;82;27649;-79
2021/03/12 01:25:10;;;;;;;50.85;29.05;;;;;;;3.28;83.29;98968.82;1672030;84;26554;-77
2021/03/12 01:27:40;;;;;;;46.18;27.40;;;;;;;3.28;83.54;98964.85;1695959;82;25969;-79
2021/03/12 01:30:18;;;;;;;47.65;26.62;;;;;;;3.26;83.16;98958.92;1670146;82;25876;-79
2021/03/12 01:32:54;;;;;;;49.80;28.45;;;;;;;3.31;83.21;98965.00;1780292;79;25741;-78
2021/03/12 01:35:22;;;;;;;50.38;25.15;;;;;;;3.24;83.31;98954.80;1665951;84;26076;-77
2021/03/12 01:37:50;;;;;;;43.15;24.70;;;;;;;3.26;83.64;98956.27;1665237;83;27547;-79
2021/03/12 01:40:21;;;;;;;44.80;25.48;;;;;;;3.28;83.45;98953.44;1688325;83;25954;-79
2021/03/12 01:42:53;;;;;;;41.33;24.27;;;;;;;3.28;83.38;98966.17;1679735;83;25884;-77
2021/03/12 01:45:44;;;;;;;42.10;24.55;;;;;;;3.35;83.36;98960.98;1798952;79;25648;-79
2021/03/12 01:48:15;;;;;;;44.55;25.70;;;;;;;3.29;83.33;98963.87;1719546;80;25809;-79
2021/03/12 01:50:47;;;;;;;42.50;24.07;;;;;;;3.29;83.25;98969.16;1746831;80;27534;-78
2021/03/12 01:53:16;;;;;;;50.80;27.52;;;;;;;3.29;83.32;98972.30;1751915;79;26022;-79
2021/03/12 01:55:45;;;;;;;40.92;23.00;;;;;;;3.29;83.19;98974.95;1792484;78;25834;-77
2021/03/12 01:58:12;;;;;;;39.18;23.20;;;;;;;3.28;83.36;98972.80;1749677;80;25815;-79
2021/03/12 02:00:42;;;;;;;42.30;24.50;;;;;;;3.27;83.56;98964.55;1769038;78;26256;-78
2021/03/12 02:03:30;;;;;;;43.13;23.42;;;;;;;3.29;83.72;98956.42;1783328;78;27611;-80
2021/03/12 02:05:59;;;;;;;43.28;25.30;;;;;;;3.31;83.87;98952.59;1716978;82;25872;-78
2021/03/12 02:08:28;;;;;;;40.08;23.83;;;;;;;3.34;83.79;98952.71;1718939;81;25862;-78
2021/03/12 02:10:58;;;;;;;42.70;24.30;;;;;;;3.36;83.83;98952.86;1715303;82;25775;-79
2021/03/12 02:14:04;;;;;;;37.60;22.65;;;;;;;3.39;83.86;98956.48;1718883;82;26087;-78
2021/03/12 02:16:43;;;;;;;45.35;24.87;;;;;;;3.41;83.99;98954.97;1735863;81;28400;-78
2021/03/12 02:19:29;;;;;;;42.98;24.50;;;;;;;3.42;84.02;98952.13;1730882;81;27275;-79
2021/03/12 02:21:59;;;;;;;39.55;23.95;;;;;;;3.45;84.26;98974.27;1718715;82;25939;-79
2021/03/12 02:24:48;;;;;;;36.38;23.02;;;;;;;3.47;84.42;98977.56;1734284;81;25761;-79
2021/03/12 02:27:20;;;;;;;41.30;23.45;;;;;;;3.49;84.41;98981.34;1738933;81;25779;-77
2021/03/12 02:29:58;;;;;;;44.88;24.77;;;;;;;3.50;84.44;98984.33;1729828;81;26879;-77
2021/03/12 02:32:33;;;;;;;36.65;22.48;;;;;;;3.52;84.50;98982.31;1689985;82;26628;-77
2021/03/12 02:35:05;;;;;;;43.38;25.15;;;;;;;3.52;84.13;98983.15;1705162;82;25995;-79
2021/03/12 02:37:33;;;;;;;40.52;23.73;;;;;;;3.51;84.37;98986.78;1733910;81;25803;-79
2021/03/12 02:40:01;;;;;;;40.55;24.23;;;;;;;3.52;84.26;98984.97;1703092;80;25830;-78
2021/03/12 02:42:31;;;;;;;38.42;23.65;;;;;;;3.52;84.19;98984.47;1726249;80;27483;-79
2021/03/12 02:45:01;;;;;;;40.40;23.70;;;;;;;3.53;84.07;98977.36;1731248;81;25760;-79
2021/03/12 02:47:30;;;;;;;;;;;;;;;3.53;84.46;98980.00;1724067;81;25899;-79
2021/03/12 02:50:00;;;;;;;35.43;20.23;;;;;;;3.54;84.23;98977.66;1700972;81;25899;-79
2021/03/12 02:52:28;;;;;;;39.03;23.90;;;;;;;3.52;84.34;98971.73;1736161;80;25342;-79
2021/03/12 02:54:56;;;;;;;42.25;24.80;;;;;;;3.55;84.31;98976.67;1732551;81;28306;-79
2021/03/12 02:57:26;;;;;;;41.08;24.32;;;;;;;3.57;84.34;98982.61;1721165;81;26106;-78
2021/03/12 02:59:56;;;;;;;39.63;22.98;;;;;;;3.60;84.40;98994.14;1739185;80;25922;-79
2021/03/12 03:02:29;;;;;;;38.92;23.50;;;;;;;3.63;84.56;98999.09;1720130;81;25945;-78
2021/03/12 03:05:03;;;;;;;36.95;23.00;;;;;;;3.66;84.47;99005.33;1717147;81;26415;-77
2021/03/12 03:07:41;;;;;;;41.92;23.95;;;;;;;3.74;84.77;99015.85;1790724;79;25736;-79
2021/03/12 03:10:11;;;;;;;36.70;22.37;;;;;;;3.77;85.32;99015.47;1734244;80;26339;-80
2021/03/12 03:12:41;;;;;;;31.62;19.37;;;;;;;3.82;84.90;99011.30;1739994;80;28494;-77
2021/03/12 03:15:12;;;;;;;37.35;21.35;;;;;;;3.85;84.65;99008.26;1708676;80;25825;-78
2021/03/12 03:17:40;;;;;;;34.58;21.15;;;;;;;3.88;84.37;99013.70;1739501;80;25764;-79
2021/03/12 03:20:13;;;;;;;38.85;22.58;;;;;;;3.88;84.12;99008.41;1696859;80;26272;-78
2021/03/12 03:22:46;;;;;;;36.77;22.05;;;;;;;3.87;83.99;98998.83;1739494;81;27027;-79
2021/03/12 03:25:15;;;;;;;36.80;22.45;;;;;;;3.87;84.03;99004.13;1706197;81;27341;-79
2021/03/12 03:27:42;;;;;;;36.83;22.10;;;;;;;3.86;83.92;99003.79;1752716;80;25798;-78
2021/03/12 03:30:14;;;;;;;39.23;23.83;;;;;;;3.85;83.85;98992.86;1725123;80;25799;-79
2021/03/12 03:32:43;;;;;;;37.90;21.62;;;;;;;3.86;83.68;98991.38;1719060;80;25792;-79
2021/03/12 03:35:12;;;;;;;39.25;23.73;;;;;;;3.87;83.60;98996.18;1725311;80;25723;-78
2021/03/12 03:37:41;;;;;;;36.17;21.17;;;;;;;3.88;83.58;98999.13;1753041;81;27505;-79
2021/03/12 03:40:10;;;;;;;40.78;23.95;;;;;;;3.88;83.47;98995.98;1719432;80;25822;-78
2021/03/12 03:42:42;;;;;;;40.12;24.98;;;;;;;3.88;83.42;99004.43;1718783;80;25911;-80
2021/03/12 03:45:11;;;;;;;40.10;24.90;;;;;;;3.88;83.33;99003.11;1724023;80;26379;-77
2021/03/12 03:47:43;;;;;;;41.18;23.45;;;;;;;3.88;83.19;99005.75;1753116;81;25688;-79
2021/03/12 03:50:12;;;;;;;35.63;22.80;;;;;;;3.87;83.09;99004.13;1675090;85;27671;-77
2021/03/12 03:52:41;;;;;;;43.68;24.75;;;;;;;3.87;83.08;99006.77;1634270;83;25865;-79
2021/03/12 03:55:12;;;;;;;37.73;23.70;;;;;;;3.86;83.09;99010.41;1663513;84;25875;-78
2021/03/12 03:57:40;;;;;;;38.08;23.67;;;;;;;3.85;83.03;99010.91;1690196;83;26210;-79
2021/03/12 04:00:11;;;;;;;39.10;24.27;;;;;;;3.86;83.13;99011.73;1650889;82;25808;-78
2021/03/12 04:02:45;;;;;;;33.48;20.80;;;;;;;3.86;83.29;99018.36;1717850;82;28726;-78
2021/03/12 04:05:15;;;;;;;41.73;23.10;;;;;;;3.86;83.28;99022.33;1697549;82;26434;-81
2021/03/12 04:07:45;;;;;;;39.00;24.15;;;;;;;3.85;83.36;99029.45;1711193;82;25619;-79
2021/03/12 04:10:13;;;;;;;33.95;20.40;;;;;;;3.86;83.54;99032.92;1677364;82;26365;-79
2021/03/12 04:12:44;;;;;;;36.25;22.20;;;;;;;3.89;83.72;99036.55;1697980;83;25821;-79
2021/03/12 04:15:16;;;;;;;32.13;19.90;;;;;;;3.91;83.80;99037.98;1668541;83;27326;-79
2021/03/12 04:17:44;;;;;;;37.17;21.62;;;;;;;3.95;83.79;99037.14;1719544;82;25815;-78
2021/03/12 04:20:14;;;;;;;36.42;21.95;;;;;;;3.99;84.22;99036.27;1661129;82;26528;-78
2021/03/12 04:22:43;;;;;;;36.17;22.62;;;;;;;4.03;84.06;99034.89;1714233;82;26402;-78
2021/03/12 04:25:11;;;;;;;37.35;22.17;;;;;;;4.06;83.87;99033.20;1650263;83;25908;-78
2021/03/12 04:27:40;;;;;;;37.00;21.80;;;;;;;4.10;83.92;99035.80;1697672;84;27546;-78
2021/03/12 04:30:08;;;;;;;37.23;19.80;;;;;;;4.10;83.82;99033.98;1654454;84;25881;-77
2021/03/12 04:32:39;;;;;;;33.45;20.75;;;;;;;4.12;83.78;99033.30;1701911;82;25733;-79
2021/03/12 04:35:09;;;;;;;33.60;19.92;;;;;;;4.13;83.89;99041.55;1674780;84;25989;-78
2021/03/12 04:37:38;;;;;;;42.58;22.75;;;;;;;4.16;83.78;99048.31;1701889;82;25797;-79
2021/03/12 04:40:08;;;;;;;34.83;21.73;;;;;;;4.16;83.77;99051.80;1688531;82;27559;-79
2021/03/12 04:42:38;;;;;;;36.38;23.52;;;;;;;4.17;83.84;99056.07;1661724;82;25770;-80
2021/03/12 04:45:08;;;;;;;33.80;20.00;;;;;;;4.20;83.76;99057.54;1657728;84;25740;-80
2021/03/12 04:47:38;;;;;;;41.35;23.60;;;;;;;4.21;83.80;99052.58;1698552;83;25721;-79
2021/03/12 04:50:09;;;;;;;36.53;22.20;;;;;;;4.22;83.73;99056.36;1666513;82;26097;-79
2021/03/12 04:52:38;;;;;;;35.08;20.30;;;;;;;4.25;84.08;99059.15;1693244;83;27625;-80
2021/03/12 04:55:09;;;;;;;35.58;22.48;;;;;;;4.28;84.17;99054.29;1676852;83;25826;-77
2021/03/12 04:57:38;;;;;;;37.73;21.33;;;;;;;4.33;83.99;99061.69;1718020;83;25785;-80
2021/03/12 05:00:09;;;;;;;35.30;17.67;;;;;;;4.36;84.10;99067.97;1672176;82;25940;-78
2021/03/12 05:02:38;;;;;;;29.00;18.62;;;;;;;4.38;84.52;99068.60;1714468;82;25927;-78
2021/03/12 05:05:09;;;;;;;27.02;15.90;;;;;;;4.45;84.13;99074.78;1701660;82;27353;-78
2021/03/12 05:07:40;;;;;;;33.35;19.10;;;;;;;4.49;84.19;99074.77;1699866;83;25464;-77
2021/03/12 05:10:11;;;;;;;32.98;20.75;;;;;;;4.49;84.06;99076.09;1676069;84;25877;-79
2021/03/12 05:12:39;;;;;;;30.87;17.70;;;;;;;4.52;83.83;99076.53;1643173;83;25921;-77
2021/03/12 05:15:08;;;;;;;31.87;18.82;;;;;;;4.55;83.91;99072.69;1649639;83;25948;-79
2021/03/12 05:17:36;;;;;;;29.72;17.87;;;;;;;4.56;83.97;99063.71;1704566;83;28435;-78
2021/03/12 05:20:05;;;;;;;25.75;16.23;;;;;;;4.57;83.78;99046.31;1649275;84;25772;-79
2021/03/12 05:22:32;;;;;;;26.82;16.45;;;;;;;4.58;83.70;99054.57;1703922;83;26037;-79
2021/03/12 05:25:01;;;;;;;25.57;14.45;;;;;;;4.58;83.77;99064.34;1644537;83;26151;-78
2021/03/12 05:27:28;;;;;;;27.67;16.48;;;;;;;4.59;83.81;99060.70;1661186;83;26089;-77
2021/03/12 05:29:56;;;;;;;28.30;15.88;;;;;;;4.59;83.65;99056.73;1682791;82;27681;-80
2021/03/12 05:32:23;;;;;;;26.93;14.40;;;;;;;4.60;83.55;99068.47;1646702;83;25741;-79
2021/03/12 05:34:51;;;;;;;27.37;15.40;;;;;;;4.59;83.50;99058.88;1662801;84;25799;-80
2021/03/12 05:37:20;;;;;;;27.80;16.23;;;;;;;4.61;83.51;99073.27;1725302;82;26193;-80
2021/03/12 05:39:49;;;;;;;30.27;17.15;;;;;;;4.59;83.50;99081.42;1685019;82;26571;-80
2021/03/12 05:42:18;;;;;;;30.75;17.27;;;;;;;4.59;83.53;99084.07;1680811;83;28478;-79
2021/03/12 05:44:47;;;;;;;22.25;13.88;;;;;;;4.59;83.52;99081.42;1673607;82;25881;-80
2021/03/12 05:47:16;;;;;;;25.32;14.95;;;;;;;4.58;83.54;99085.56;1701764;82;25765;-79
2021/03/12 05:49:44;;;;;;;23.02;12.68;;;;;;;4.57;83.70;99087.41;1713681;82;25783;-77
2021/03/12 05:52:12;;;;;;;24.57;13.75;;;;;;;4.58;84.00;99095.67;1668128;82;26142;-78
2021/03/12 05:54:46;;;;;;;24.77;14.85;;;;;;;4.59;83.97;99101.31;1666155;84;27318;-77
2021/03/12 05:57:14;;;;;;;27.67;15.95;;;;;;;4.60;84.16;99098.12;1654553;83;25925;-79
2021/03/12 05:59:43;;;;;;;31.55;17.32;;;;;;;4.62;84.16;99102.74;1686552;83;25787;-78
2021/03/12 06:02:13;;;;;;;25.65;15.15;;;;;;;4.63;84.42;99108.38;1685298;83;26030;-78
2021/03/12 06:04:45;;;;;;;28.63;16.00;;;;;;;4.64;84.40;99110.84;1684180;82;25794;-77
2021/03/12 06:07:14;;;;;;;24.70;13.83;;;;;;;4.64;84.58;99110.04;1685217;84;27554;-79
2021/03/12 06:09:48;;;;;;;21.90;13.90;;;;;;;4.65;84.82;99115.65;1685513;82;25790;-78
2021/03/12 06:12:16;;;;;;;27.93;15.10;;;;;;;4.65;85.23;99116.97;1694184;82;25821;-81
2021/03/12 06:15:00;;;;;;;25.20;15.13;;;;;;;4.65;84.97;99115.65;1672521;82;26456;-78
2021/03/12 06:17:40;;;;;;;27.98;15.55;;;;;;;4.68;85.32;99124.58;1712270;82;25773;-80
2021/03/12 06:20:18;;;;;;;26.40;14.75;;;;;;;4.69;85.44;99128.85;1673651;83;28733;-78
2021/03/12 06:22:57;;;;;;;23.77;13.83;;;;;;;4.72;85.56;99131.64;1712255;82;25843;-78
2021/03/12 06:25:30;;;;;;;21.05;13.90;;;;;;;4.73;86.15;99128.80;1689451;83;26297;-78
2021/03/12 06:28:19;;;;;;;25.35;14.90;;;;;;;4.77;86.06;99135.91;1696993;83;25754;-80
2021/03/12 06:31:01;;;;;;;19.85;11.53;;;;;;;4.85;86.13;99135.30;1800595;77;25694;-79
2021/03/12 06:33:39;;;;;;;26.55;13.88;;;;;;;4.83;86.37;99143.94;1685120;82;26128;-78
2021/03/12 06:36:31;;;;;;;23.73;14.83;;;;;;;4.84;86.18;99145.57;1705264;82;28301;-78
2021/03/12 06:39:12;;;;;;;24.12;13.53;;;;;;;4.86;86.19;99152.84;1741843;80;25711;-79
2021/03/12 06:41:45;;;;;;;26.33;15.68;;;;;;;4.89;86.22;99155.63;1740283;80;25780;-78
2021/03/12 06:44:33;;;;;;;22.80;14.20;;;;;;;4.91;86.11;99158.92;1719675;80;25811;-78
2021/03/12 06:47:06;;;;;;;25.25;14.53;;;;;;;4.92;86.00;99152.63;1699824;80;25742;-79
2021/03/12 06:49:55;;;;;;;21.50;14.20;;;;;;;4.94;85.89;99158.56;1748278;80;27608;-78
2021/03/12 06:52:37;;;;;;;21.33;13.32;;;;;;;5.02;85.97;99159.28;1842432;77;25703;-79
2021/03/12 06:55:07;;;;;;;18.85;11.45;;;;;;;4.97;85.95;99164.31;1766272;78;25822;-80
2021/03/12 06:57:46;;;;;;;22.32;12.90;;;;;;;5.04;86.10;99169.20;1802406;77;25696;-78
2021/03/12 07:00:19;;;;;;;22.87;12.33;;;;;;;5.01;86.09;99176.19;1733755;82;25752;-80
2021/03/12 07:02:49;;;;;;;18.00;11.73;;;;;;;5.02;86.26;99167.23;1709825;82;27006;-79
2021/03/12 07:05:18;;;;;;;21.62;12.85;;;;;;;5.03;86.27;99179.98;1712637;82;25767;-78
2021/03/12 07:07:50;;;;;;;19.42;11.88;;;;;;;5.04;86.29;99186.95;1745417;80;25722;-79
2021/03/12 07:10:36;;;;;;;25.05;13.20;;;;;;;5.07;86.15;99186.59;1648000;83;25361;-80
2021/03/12 07:13:23;;;;;;;22.37;12.23;;;;;;;5.09;86.13;99192.53;1661242;85;26015;-79
2021/03/12 07:15:55;;;;;;;20.52;11.93;;;;;;;5.11;86.27;99193.96;1652019;83;27355;-78
2021/03/12 07:18:27;;;;;;;23.80;13.58;;;;;;;5.12;86.57;99204.91;1669649;85;26113;-78
2021/03/12 07:20:57;;;;;;;21.10;11.97;;;;;;;5.14;86.26;99202.89;1635735;85;25896;-79
2021/03/12 07:23:28;;;;;;;18.90;11.38;;;;;;;5.20;86.27;99210.60;1636473;86;25939;-77
2021/03/12 07:25:59;;;;;;;18.40;11.93;;;;;;;5.22;86.40;99213.89;1714027;82;25833;-79
2021/03/12 07:28:29;;;;;;;19.40;11.20;;;;;;;5.25;86.06;99210.88;1704819;82;27600;-78
2021/03/12 07:31:19;;;;;;;18.23;10.95;;;;;;;5.32;86.26;99211.79;1797724;79;25699;-77
2021/03/12 07:33:54;;;;;;;15.50;10.48;;;;;;;5.28;86.21;99213.97;1720041;82;25811;-80
2021/03/12 07:36:25;;;;;;;15.03;9.23;;;;;;;5.32;86.01;99219.75;1728149;82;27057;-79
2021/03/12 07:39:04;;;;;;;15.10;9.70;;;;;;;5.43;86.20;99217.95;1798561;79;25720;-79
2021/03/12 07:41:32;;;;;;;17.63;10.93;;;;;;;5.43;86.02;99222.73;1734452;79;26471;-80
2021/03/12 07:44:17;;;;;;;14.60;9.98;;;;;;;5.50;86.08;99232.09;1715802;82;27524;-78
2021/03/12 07:47:03;;;;;;;12.28;9.00;;;;;;;5.64;85.93;99221.13;1801935;79;25676;-79
2021/03/12 07:49:34;;;;;;;15.25;9.43;;;;;;;5.65;86.09;99229.39;1737839;81;25779;-78
2021/03/12 07:52:05;;;;;;;13.48;8.85;;;;;;;5.72;85.80;99230.29;1723653;82;27599;-78
2021/03/12 07:54:43;;;;;;;13.60;8.40;;;;;;;5.77;85.51;99236.70;1716473;82;25810;-77
2021/03/12 07:57:17;;;;;;;14.45;7.78;;;;;;;5.81;85.29;99239.30;1743734;82;26055;-79
2021/03/12 07:59:55;;;;;;;13.05;7.30;;;;;;;5.85;85.23;99242.41;1685506;82;25917;-78
2021/03/12 08:03:00;;;;;;;12.33;7.92;;;;;;;5.97;84.99;99243.05;1781612;79;26359;-78
2021/03/12 08:05:45;;;;;;;13.18;8.48;;;;;;;5.97;84.96;99236.91;1761545;80;25498;-77
2021/03/12 08:08:38;;;;;;;10.98;6.33;;;;;;;6.08;85.08;99247.86;1706242;80;27614;-78
2021/03/12 08:11:36;;;;;;;11.73;7.05;;;;;;;6.24;84.67;99255.55;1790098;79;26293;-79
2021/03/12 08:14:16;;;;;;;9.53;5.30;;;;;;;6.26;84.69;99247.91;1694982;81;25748;-78
2021/03/12 08:17:04;;;;;;;12.25;7.60;;;;;;;6.34;84.16;99258.40;1707929;83;28499;-78
2021/03/12 08:19:47;;;;;;;14.78;8.00;;;;;;;6.39;83.95;99271.95;1700832;81;26062;-79
2021/03/12 08:22:43;;;;;;;13.03;8.08;;;;;;;6.48;83.66;99256.97;1752233;79;25708;-78
2021/03/12 08:25:13;;;;;;;14.95;8.48;;;;;;;6.48;83.69;99264.16;1657286;83;26704;-79
2021/03/12 08:27:48;;;;;;;14.47;8.30;;;;;;;6.55;83.65;99270.33;1666139;83;27654;-78
2021/03/12 08:30:39;;;;;;;12.88;7.67;;;;;;;6.62;83.62;99268.55;1688284;81;25799;-79
2021/03/12 08:33:30;;;;;;;10.18;6.65;;;;;;;6.71;83.00;99265.56;1771174;79;26512;-78
2021/03/12 08:36:25;;;;;;;15.95;7.67;;;;;;;6.70;82.89;99279.03;1733469;82;26094;-79
2021/03/12 08:39:27;;;;;;;13.83;7.37;;;;;;;6.74;82.79;99270.98;1728603;80;27519;-79
2021/03/12 08:42:04;;;;;;;20.72;9.53;;;;;;;6.83;82.40;99281.30;1792626;79;25740;-78
2021/03/12 08:45:00;;;;;;;12.78;8.68;;;;;;;6.86;82.16;99291.53;1781595;79;25697;-78
2021/03/12 08:47:29;;;;;;;17.00;9.50;;;;;;;6.85;82.42;99286.41;1728733;80;25744;-79
2021/03/12 08:49:57;;;;;;;15.60;8.48;;;;;;;6.96;82.22;99298.69;1743817;80;27498;-80
2021/03/12 08:52:27;;;;;;;11.93;7.87;;;;;;;7.03;81.40;99299.23;1720156;80;26608;-79
2021/03/12 08:54:56;;;;;;;19.05;12.10;;;;;;;7.13;81.50;99303.18;1737217;80;26491;-78
2021/03/12 08:57:25;;;;;;;15.03;9.73;;;;;;;7.26;81.37;99308.59;1738574;80;25937;-79
2021/03/12 09:00:09;;;;;;;15.55;9.58;;;;;;;7.43;81.27;99305.08;1791497;79;25674;-80
2021/03/12 09:02:50;;;;;;;12.88;8.90;;;;;;;7.44;80.78;99316.86;1728465;81;25792;-78
2021/03/12 09:05:30;;;;;;;15.15;8.83;;;;;;;7.44;80.15;99318.73;1683589;81;27548;-79
2021/03/12 09:08:08;;;;;;;12.53;9.30;;;;;;;7.40;79.61;99322.80;1709513;81;25832;-78
2021/03/12 09:10:37;;;;;;;14.45;9.23;;;;;;;7.38;80.05;99329.64;1743769;81;25735;-80
2021/03/12 09:13:23;;;;;;;13.68;9.80;;;;;;;7.40;79.64;99328.14;1772176;79;26135;-79
2021/03/12 09:15:51;;;;;;;16.07;9.60;;;;;;;7.31;79.90;99334.13;1697902;82;25725;-80
2021/03/12 09:18:22;;;;;;;17.15;9.90;;;;;;;7.28;80.05;99337.67;1702049;83;29111;-79
2021/03/12 09:20:54;;;;;;;15.30;9.83;;;;;;;7.25;79.75;99335.42;1725168;81;25693;-80
2021/03/12 09:23:47;;;;;;;13.80;9.40;;;;;;;7.19;79.93;99339.67;1734659;80;25708;-80
2021/03/12 09:26:19;;;;;;;16.80;10.00;;;;;;;7.14;79.73;99345.28;1705676;82;25394;-79
2021/03/12 09:28:52;;;;;;;13.60;10.32;;;;;;;7.06;79.87;99346.77;1707190;80;25806;-80
2021/03/12 09:31:33;;;;;;;13.25;9.95;;;;;;;6.99;80.10;99350.19;1701084;82;28505;-80
2021/03/12 09:34:06;;;;;;;16.17;9.73;;;;;;;6.96;80.34;99366.56;1731478;80;26246;-80
2021/03/12 09:36:50;;;;;;;9.98;7.75;;;;;;;6.96;80.79;99361.24;1870670;75;25703;-79
2021/03/12 09:39:41;;;;;;;10.38;7.95;;;;;;;6.88;81.24;99368.55;1806754;78;25748;-80
2021/03/12 09:42:22;;;;;;;14.03;9.38;;;;;;;6.83;81.37;99378.44;1792659;78;25757;-79
2021/03/12 09:44:52;;;;;;;13.32;8.60;;;;;;;6.70;81.70;99384.14;1723228;81;25724;-80
2021/03/12 09:47:21;;;;;;;11.73;8.78;;;;;;;6.61;81.72;99386.11;1721943;81;27554;-79
2021/03/12 09:49:58;;;;;;;9.90;6.28;;;;;;;6.64;81.96;99380.92;1792849;79;25675;-80
2021/03/12 09:52:31;;;;;;;8.53;5.72;;;;;;;6.60;82.09;99380.99;1761095;80;25882;-79
2021/03/12 09:55:03;;;;;;;10.78;6.35;;;;;;;6.61;81.58;99389.27;1715711;80;27237;-79
2021/03/12 09:57:31;;;;;;;7.30;4.62;;;;;;;6.61;81.65;99378.13;1717670;80;25759;-80
2021/03/12 10:00:00;;;;;;;8.40;5.35;;;;;;;6.64;81.51;99394.23;1755045;80;25911;-79
2021/03/12 10:02:52;;;;;;;7.55;4.87;;;;;;;6.65;81.50;99392.70;1736704;80;26362;-80
2021/03/12 10:05:35;;;;;;;7.67;4.62;;;;;;;6.72;81.31;99406.89;1830318;77;25734;-80
2021/03/12 10:08:16;;;;;;;;;;;;;;;6.62;81.14;99405.07;1773003;78;25812;-79
2021/03/12 10:10:50;;;;;;;7.08;3.50;;;;;;;6.56;80.54;99391.20;1802301;78;28443;-79
2021/03/12 10:13:25;;;;;;;30.00;17.67;;;;;;;6.49;80.62;99404.11;1757768;80;25855;-80
2021/03/12 10:15:54;;;;;;;19.00;12.98;;;;;;;6.47;80.49;99403.47;1771590;80;25727;-80
2021/03/12 10:18:31;;;;;;;15.00;8.23;;;;;;;6.54;80.61;99402.55;1802635;79;25696;-79
2021/03/12 10:21:08;;;;;;;9.43;6.35;;;;;;;6.58;80.99;99404.30;1717473;80;25764;-80
2021/03/12 10:23:36;;;;;;;8.50;6.90;;;;;;;6.66;81.13;99406.33;1734132;82;28905;-80
2021/03/12 10:26:07;;;;;;;9.25;5.28;;;;;;;6.79;80.94;99406.95;1729942;82;25821;-80
2021/03/12 10:28:34;;;;;;;10.50;5.37;;;;;;;6.90;80.02;99407.77;1717171;82;25792;-79
2021/03/12 10:31:01;;;;;;;7.78;5.25;;;;;;;6.97;79.87;99414.78;1712441;82;25779;-79
2021/03/12 10:33:31;;;;;;;9.93;5.22;;;;;;;7.02;78.75;99420.86;1714148;82;25857;-79
2021/03/12 10:36:03;;;;;;;10.90;5.67;;;;;;;7.06;79.38;99417.33;1722572;82;27330;-79
2021/03/12 10:38:34;;;;;;;11.48;5.25;;;;;;;7.11;79.04;99415.72;1715168;82;25762;-79
2021/03/12 10:41:07;;;;;;;8.58;5.47;;;;;;;7.17;79.54;99413.61;1686605;82;25723;-80
2021/03/12 10:43:55;;;;;;;8.08;5.58;;;;;;;7.31;79.37;99416.70;1837246;77;25622;-80
2021/03/12 10:46:22;;;;;;;11.28;6.78;;;;;;;7.29;78.86;99417.38;1779972;78;26122;-80
2021/03/12 10:48:51;;;;;;;25.35;12.78;;;;;;;7.35;79.44;99417.13;1718253;80;27095;-78
2021/03/12 10:51:20;;;;;;;16.48;9.40;;;;;;;7.48;79.22;99422.05;1716091;81;26221;-80
2021/03/12 10:53:54;;;;;;;11.78;7.92;;;;;;;7.54;78.71;99425.75;1706780;81;25858;-79
2021/03/12 10:56:27;;;;;;;9.38;6.03;;;;;;;7.58;79.34;99419.84;1725121;82;25863;-81
2021/03/12 10:58:55;;;;;;;8.20;6.12;;;;;;;7.64;78.69;99423.55;1714417;81;26584;-79
2021/03/12 11:01:29;;;;;;;8.05;5.55;;;;;;;7.70;78.56;99416.09;1725954;81;27069;-79
2021/03/12 11:03:59;;;;;;;12.43;6.90;;;;;;;7.73;78.13;99416.55;1753772;81;25979;-79
2021/03/12 11:06:35;;;;;;;9.65;6.08;;;;;;;7.80;78.36;99416.05;1719982;81;26409;-78
2021/03/12 11:09:09;;;;;;;29.70;16.30;;;;;;;7.83;77.68;99424.17;1728116;81;25712;-76
2021/03/12 11:11:37;;;;;;;18.07;9.08;;;;;;;7.79;77.44;99425.08;1721555;82;25977;-76
2021/03/12 11:14:05;;;;;;;14.65;9.15;;;;;;;7.76;77.40;99427.33;1748260;81;27525;-76
2021/03/12 11:16:33;;;;;;;21.62;13.88;;;;;;;7.83;78.32;99435.36;1698654;81;25845;-76
2021/03/12 11:19:00;;;;;;;15.08;9.10;;;;;;;7.89;77.96;99430.57;1711693;81;26246;-76
2021/03/12 11:21:28;;;;;;;17.17;9.03;;;;;;;7.96;77.71;99424.23;1728384;81;26211;-78
2021/03/12 11:23:56;;;;;;;11.30;6.37;;;;;;;8.05;77.90;99427.05;1751630;80;25751;-76
2021/03/12 11:26:24;;;;;;;12.05;6.87;;;;;;;8.11;75.49;99430.25;1702890;81;27564;-76
2021/03/12 11:28:51;;;;;;;11.33;6.28;;;;;;;8.16;75.44;99435.81;1696017;81;26511;-77
2021/03/12 11:31:19;;;;;;;12.43;6.50;;;;;;;8.21;74.31;99430.69;1726152;82;26292;-77
2021/03/12 11:33:46;;;;;;;6.83;5.28;;;;;;;8.29;74.45;99441.74;1746452;81;26123;-76
2021/03/12 11:36:14;;;;;;;12.35;6.35;;;;;;;8.30;72.58;99439.37;1739892;81;26387;-75
2021/03/12 11:38:41;;;;;;;13.93;8.13;;;;;;;8.26;72.86;99436.80;1718880;82;27534;-75
2021/03/12 11:41:09;;;;;;;9.33;5.90;;;;;;;8.28;72.67;99436.91;1709855;81;25778;-75
2021/03/12 11:43:36;;;;;;;9.88;5.65;;;;;;;8.28;71.92;99435.58;1706853;81;25738;-76
2021/03/12 11:46:03;;;;;;;10.35;6.30;;;;;;;8.32;71.49;99436.81;1662334;84;25736;-77
2021/03/12 11:48:30;;;;;;;13.10;7.42;;;;;;;8.38;72.29;99442.68;1671216;83;25803;-77
2021/03/12 11:50:57;;;;;;;11.48;5.60;;;;;;;8.48;72.04;99440.48;1708418;82;27336;-76
2021/03/12 11:53:24;;;;;;;9.88;5.78;;;;;;;8.51;70.82;99441.39;1703181;83;25917;-76
2021/03/12 11:55:52;;;;;;;12.03;6.70;;;;;;;8.45;71.29;99440.86;1663848;83;26643;-77